Latest Weather Observations for Mount William

IDV60801

Issued at 11:35 pm EST Monday 1 September 2014 (issued every 30 minutes, with the page automatically refreshed every 10 minutes)

About weather observations | Map of weather stations | Latest weather observations for VIC | Other Formats
Station Details ID: 079103 Name: MOUNT WILLIAM Lat: -37.30 Lon: 142.60 Height: 1150.0 m
Data from the previous 72 hours. | See also: Recent months at Mount William
Date/Time
EST
Temp
°C
App
Temp
°C
Dew
Point
Rel
Hum
%
Delta-T
°C
Wind Press
QNH
hPa
Press
MSL
hPa
Rain
since 9 am
mm
Dir
 
Spd
km/h
Gust
km/h
Spd
kts
Gust
kts
01/11:30pm 1.5 -6.3 1.4 99 0.0 WSW 32 46 17 25 - - 18.6
01/11:00pm 1.4 -5.3 1.3 99 0.0 WSW 26 39 14 21 - - 18.6
01/10:30pm 1.6 -4.7 1.5 99 0.0 WSW 24 37 13 20 - - 18.6
01/10:00pm 1.6 -5.1 1.5 99 0.0 WSW 26 43 14 23 - - 18.6
01/09:30pm 1.8 -5.2 1.7 99 0.0 WSW 28 44 15 24 - - 18.6
01/09:08pm 2.0 -5.0 1.9 99 0.0 WSW 28 48 15 26 - - 18.6
01/09:00pm 2.1 -5.3 2.0 99 0.0 WSW 30 46 16 25 - - 18.6
01/08:49pm 2.1 -4.9 2.0 99 0.0 WSW 28 48 15 26 - - 18.6
01/08:30pm 2.4 -4.9 2.3 99 0.0 SW 30 43 16 23 - - 18.4
01/08:00pm 2.2 -5.2 2.1 99 0.0 SW 30 44 16 24 - - 18.0
01/07:30pm 2.1 -5.3 2.0 99 0.0 SW 30 43 16 23 - - 17.2
01/07:00pm 2.1 -5.3 2.0 99 0.0 SW 30 46 16 25 - - 16.8
01/06:30pm 2.4 -4.2 2.3 99 0.0 SW 26 41 14 22 - - 16.0
01/06:00pm 3.1 -0.5 3.0 99 0.0 WSW 11 26 6 14 - - 15.8
01/05:30pm 2.9 -3.6 2.8 99 0.0 SW 26 37 14 20 - - 15.8
01/05:02pm 2.9 -4.0 2.8 99 0.0 SW 28 46 15 25 - - 15.8
01/05:00pm 2.9 -4.3 2.8 99 0.0 SW 30 46 16 25 - - 15.8
01/04:30pm 3.5 -4.0 3.4 99 0.0 SW 32 46 17 25 - - 15.8
01/04:00pm 3.0 -4.8 2.9 99 0.0 SW 33 46 18 25 - - 15.8
01/03:37pm 2.8 -5.8 2.7 99 0.0 SW 37 57 20 31 - - 15.8
01/03:30pm 2.4 -7.0 2.3 99 0.0 SW 41 57 22 31 - - 15.8
01/03:00pm 1.8 -8.3 1.7 99 0.0 SW 44 65 24 35 - - 14.4
01/02:33pm 2.4 -5.9 2.3 99 0.0 WSW 35 57 19 31 - - 12.2
01/02:30pm 2.8 -2.0 2.7 99 0.0 SW 17 59 9 32 - - 11.8
01/02:00pm 5.7 2.6 5.6 99 0.0 W 11 17 6 9 - - 11.0
01/01:30pm 4.9 1.3 4.8 99 0.0 WSW 13 28 7 15 - - 11.0
01/01:00pm 4.4 -0.7 4.3 99 0.0 WSW 20 33 11 18 - - 11.0
01/12:30pm 4.3 -1.5 4.2 99 0.0 WSW 24 33 13 18 - - 11.0
01/12:00pm 4.0 -1.5 3.9 99 0.0 WSW 22 32 12 17 - - 9.4
01/11:30am 5.1 1.1 5.0 99 0.0 WNW 15 28 8 15 - - 5.6
01/11:00am 5.1 -0.2 5.0 99 0.0 W 22 37 12 20 - - 5.2
01/10:30am 5.0 0.2 4.9 99 0.0 W 19 30 10 16 - - 4.6
01/10:00am 5.1 0.2 5.0 99 0.0 W 20 33 11 18 - - 2.2
01/09:30am 5.0 0.1 4.9 99 0.0 W 20 32 11 17 - - 1.0
01/09:00am 4.9 0.5 4.8 99 0.0 W 17 26 9 14 - - 5.8
01/08:30am 4.7 1.0 4.6 99 0.0 W 13 22 7 12 - - 4.6
01/08:00am 4.7 1.0 4.6 99 0.0 WSW 13 22 7 12 - - 4.6
01/07:30am 4.7 -1.1 4.6 99 0.0 W 24 37 13 20 - - 4.6
01/07:00am 4.8 -2.5 4.7 99 0.0 W 32 48 17 26 - - 3.8
01/06:30am 5.2 -1.6 5.1 99 0.0 W 30 50 16 27 - - 2.6
01/06:00am 5.4 -1.7 5.3 99 0.0 W 32 44 17 24 - - 1.0
01/05:39am 5.5 -1.6 5.4 99 0.0 W 32 50 17 27 - - 0.4
01/05:30am 5.6 -1.7 5.5 99 0.0 W 33 48 18 26 - - 0.2
01/05:05am 6.1 -1.6 5.2 94 0.4 W 35 56 19 30 - - 0.0
01/05:00am 6.2 -1.6 4.7 90 0.7 WSW 35 48 19 26 - - 0.0
01/04:30am 6.9 -1.1 3.7 80 1.5 W 35 52 19 28 - - 0.0
01/04:00am 7.3 -1.2 0.7 63 2.8 W 35 44 19 24 - - 0.0
01/03:30am 8.1 -0.4 0.8 60 3.2 W 35 46 19 25 - - 0.0
01/03:00am 8.3 -0.9 -1.0 52 3.9 W 37 50 20 27 - - 0.0
01/02:59am 8.3 -1.2 -1.0 52 3.9 W 39 50 21 27 - - 0.0
01/02:30am 9.5 -1.9 -2.4 43 4.8 WNW 48 72 26 39 - - 0.0
01/02:10am 11.0 0.2 -3.5 36 5.8 NW 44 67 24 36 - - 0.0
01/02:00am 11.3 -0.3 -3.6 35 6.0 NW 48 65 26 35 - - 0.0
01/01:30am 11.3 0.7 -3.6 35 6.0 NW 43 63 23 34 - - 0.0
01/01:00am 11.2 0.4 -3.3 36 5.9 NW 44 72 24 39 - - 0.0
01/12:30am 11.3 0.2 -3.2 36 5.9 NW 46 70 25 38 - - 0.0
01/12:04am 11.2 0.1 -2.9 37 5.8 NW 46 70 25 38 - - 0.0
01/12:00am 11.3 0.2 -2.8 37 5.8 NW 46 65 25 35 - - 0.0
 
Date/Time
EST
Temp
°C
App
Temp
°C
Dew
Point
Rel
Hum
%
Delta-T
°C
Wind Press
QNH
hPa
Press
MSL
hPa
Rain
since 9 am
mm
Dir
 
Spd
km/h
Gust
km/h
Spd
kts
Gust
kts
31/11:30pm 11.4 0.9 -2.8 37 5.8 NNW 43 65 23 35 - - 0.0
31/11:04pm 11.5 0.7 -3.4 35 6.0 NNW 44 70 24 38 - - 0.0
31/11:00pm 11.4 0.6 -3.1 36 5.9 NNW 44 59 24 32 - - 0.0
31/10:30pm 11.5 -0.1 -3.4 35 6.0 NNW 48 67 26 36 - - 0.0
31/10:12pm 11.4 -0.2 -3.5 35 6.0 NNW 48 67 26 36 - - 0.0
31/10:00pm 11.2 0.4 -3.3 36 5.9 NNW 44 59 24 32 - - 0.0
31/09:32pm 11.2 1.7 -3.7 35 6.0 NNW 37 56 20 30 - - 0.0
31/09:30pm 11.1 1.6 -3.4 36 5.9 NNW 37 50 20 27 - - 0.0
31/09:09pm 11.2 1.4 -2.9 37 5.8 NNW 39 59 21 32 - - 0.0
31/09:00pm 11.4 0.6 -3.5 35 6.0 NNW 44 59 24 32 - - 0.0
31/08:30pm 11.7 1.1 -3.6 34 6.2 N 43 65 23 35 - - 0.0
31/08:00pm 11.7 1.1 -3.6 34 6.2 N 43 67 23 36 - - 0.0
31/07:36pm 11.5 2.0 -3.4 35 6.0 N 37 59 20 32 - - 0.0
31/07:30pm 11.4 2.0 -3.1 36 5.9 N 37 50 20 27 - - 0.0
31/07:29pm 11.4 2.0 -3.1 36 5.9 N 37 50 20 27 - - 0.0
31/07:00pm 11.4 2.8 -2.8 37 5.8 NW 33 50 18 27 - - 0.0
31/06:54pm 11.5 2.6 -2.3 38 5.7 NW 35 54 19 29 - - 0.0
31/06:30pm 11.5 3.2 -1.6 40 5.5 NW 32 46 17 25 - - 0.0
31/06:21pm 11.5 4.0 -1.6 40 5.5 NW 28 46 15 25 - - 0.0
31/06:00pm 11.3 3.9 -0.8 43 5.2 NW 28 41 15 22 - - 0.0
31/05:30pm 11.8 4.0 -0.7 42 5.4 NW 30 41 16 22 - - 0.0
31/05:00pm 12.6 4.5 -0.6 40 5.8 NW 32 48 17 26 - - 0.0
31/04:45pm 12.0 4.2 -0.8 41 5.5 NNW 30 50 16 27 - - 0.0
31/04:30pm 12.2 3.4 -1.3 39 5.8 NNW 35 50 19 27 - - 0.0
31/04:00pm 12.2 3.7 0.9 46 5.1 NNW 35 56 19 30 - - 0.0
31/03:30pm 11.8 3.9 2.5 53 4.3 N 33 59 18 32 - - 0.0
31/03:20pm 11.7 4.9 3.0 55 4.1 N 28 54 15 29 - - 0.0
31/03:00pm 12.3 4.8 3.5 55 4.2 N 32 46 17 25 - - 0.0
31/02:46pm 12.7 4.1 2.8 51 4.7 NNW 37 57 20 31 - - 0.0
31/02:30pm 12.2 4.6 2.6 52 4.5 NNW 32 46 17 25 - - 0.0
31/02:18pm 12.8 5.1 2.4 49 4.9 NW 32 50 17 27 - - 0.0
31/02:00pm 11.9 4.1 1.8 50 4.6 NW 32 46 17 25 - - 0.0
31/01:36pm 12.4 5.0 1.7 48 4.9 NW 30 48 16 26 - - 0.0
31/01:30pm 12.0 4.5 1.1 47 4.9 NW 30 46 16 25 - - 0.0
31/01:00pm 12.3 4.2 1.3 47 5.0 NW 33 50 18 27 - - 0.0
31/12:30pm 12.2 4.3 0.9 46 5.1 NW 32 52 17 28 - - 0.0
31/12:27pm 12.6 4.5 0.7 44 5.3 NW 33 52 18 28 - - 0.0
31/12:00pm 13.4 5.3 0.8 42 5.7 NW 33 46 18 25 - - 0.0
31/11:30am 11.5 2.9 0.3 46 4.9 NW 35 50 19 27 - - 0.0
31/11:00am 11.2 3.7 0.9 49 4.6 NW 30 44 16 24 - - 0.0
31/10:30am 11.5 4.0 1.2 49 4.6 NW 30 44 16 24 - - 0.0
31/10:00am 11.3 3.4 1.3 50 4.5 NW 32 48 17 26 - - 0.0
31/09:39am 11.8 4.0 1.7 50 4.6 NW 32 50 17 27 - - 0.0
31/09:30am 11.3 2.9 1.5 51 4.4 NW 35 52 19 28 - - 0.0
31/09:02am 10.5 1.2 0.8 51 4.3 NNW 39 59 21 32 - - 0.0
31/09:00am 10.9 1.3 1.2 51 4.3 NNW 41 59 22 32 - - 0.0
31/08:30am 10.6 0.7 1.4 53 4.1 N 43 56 23 30 - - 0.0
31/08:00am 9.8 1.3 1.2 55 3.8 N 35 52 19 28 - - 0.0
31/07:30am 9.2 1.2 1.4 58 3.5 NNW 33 46 18 25 - - 0.0
31/07:00am 8.7 1.2 1.1 59 3.3 N 30 46 16 25 - - 0.0
31/06:30am 8.7 0.9 1.6 61 3.1 N 32 43 17 23 - - 0.0
31/06:00am 8.7 1.9 1.1 59 3.3 N 26 37 14 20 - - 0.0
31/05:30am 8.8 2.1 1.7 61 3.2 N 26 33 14 18 - - 0.0
31/05:00am 8.5 1.8 1.4 61 3.1 N 26 37 14 20 - - 0.0
31/04:30am 8.2 1.1 1.4 62 3.0 N 28 41 15 22 - - 0.0
31/04:00am 8.2 0.8 1.8 64 2.8 N 30 41 16 22 - - 0.0
31/03:30am 8.1 0.4 2.1 66 2.7 N 32 43 17 23 - - 0.0
31/03:00am 7.8 0.5 2.5 69 2.4 N 30 41 16 22 - - 0.0
31/02:30am 7.8 1.3 2.9 71 2.2 N 26 37 14 20 - - 0.0
31/02:00am 8.3 2.1 1.9 64 2.8 N 24 32 13 17 - - 0.0
31/01:30am 8.1 2.0 2.6 68 2.5 N 24 32 13 17 - - 0.0
31/01:00am 8.1 2.0 2.8 69 2.4 N 24 33 13 18 - - 0.0
31/12:30am 8.2 1.7 2.7 68 2.5 N 26 33 14 18 - - 0.0
31/12:00am 8.2 2.5 2.7 68 2.5 N 22 32 12 17 - - 0.0
 
Date/Time
EST
Temp
°C
App
Temp
°C
Dew
Point
Rel
Hum
%
Delta-T
°C
Wind Press
QNH
hPa
Press
MSL
hPa
Rain
since 9 am
mm
Dir
 
Spd
km/h
Gust
km/h
Spd
kts
Gust
kts
30/11:30pm 8.7 3.0 2.9 67 2.6 N 22 32 12 17 - - 0.0
30/11:00pm 8.7 3.0 2.9 67 2.6 N 22 30 12 16 - - 0.0
30/10:30pm 8.8 3.2 3.6 70 2.4 N 22 26 12 14 - - 0.0
30/10:00pm 8.7 4.9 4.1 73 2.2 N 13 17 7 9 - - 0.0
30/09:30pm 8.7 4.2 4.1 73 2.2 NNW 17 20 9 11 - - 0.0
30/09:00pm 8.8 4.7 4.6 75 2.0 N 15 19 8 10 - - 0.0
30/08:30pm 9.1 5.8 4.3 72 2.3 N 11 15 6 8 - - 0.0
30/08:00pm 9.3 5.1 3.7 68 2.6 NNW 15 17 8 9 - - 0.0
30/07:30pm 9.2 5.5 4.2 71 2.4 NW 13 15 7 8 - - 0.0
30/07:00pm 8.9 4.8 4.3 73 2.2 WNW 15 15 8 8 - - 0.0
30/06:30pm 9.1 5.1 4.7 74 2.1 W 15 17 8 9 - - 0.0
30/06:00pm 9.9 5.9 4.7 70 2.5 W 15 17 8 9 - - 0.0
30/05:30pm 11.1 8.0 5.4 68 2.8 W 11 17 6 9 - - 0.0
30/05:00pm 11.9 8.9 5.8 66 3.0 W 11 17 6 9 - - 0.0
30/04:30pm 12.2 9.2 5.8 65 3.2 W 11 17 6 9 - - 0.0
30/04:00pm 12.4 9.4 6.0 65 3.2 W 11 15 6 8 - - 0.0
30/03:30pm 12.8 9.8 5.9 63 3.5 W 11 15 6 8 - - 0.0
30/03:00pm 12.5 9.0 5.4 62 3.5 W 13 19 7 10 - - 0.0
30/02:30pm 12.2 8.9 4.7 60 3.7 W 11 17 6 9 - - 0.0
30/02:00pm 11.6 8.1 5.3 65 3.1 W 13 19 7 10 - - 0.0
30/01:30pm 11.9 8.5 6.0 67 3.0 W 13 17 7 9 - - 0.0
30/01:00pm 12.2 9.0 5.1 62 3.5 W 11 15 6 8 - - 0.0
30/12:30pm 12.7 9.8 4.4 57 4.0 W 9 11 5 6 - - 0.0
30/12:00pm 12.4 9.2 2.8 52 4.5 W 9 11 5 6 - - 0.0
30/11:30am 12.8 9.6 0.5 43 5.5 WNW 7 11 4 6 - - 0.0
30/11:00am 13.3 10.3 1.0 43 5.6 W 6 7 3 4 - - 0.0
30/10:30am 12.8 10.1 0.2 42 5.6 WSW 4 7 2 4 - - 0.0
30/10:00am 13.1 11.1 0.2 41 5.8 CALM 0 0 0 0 - - 0.0
30/09:30am 12.8 10.5 0.2 42 5.6 WSW 2 4 1 2 - - 0.0
30/09:00am 12.3 9.5 -0.2 42 5.5 WSW 4 6 2 3 - - 0.0
30/08:30am 11.7 8.9 -0.1 44 5.2 SW 4 6 2 3 - - 0.0
30/08:00am 10.9 7.6 -0.9 44 5.0 SW 6 7 3 4 - - 0.0
30/07:30am 10.1 6.0 -0.1 49 4.4 SW 11 13 6 7 - - 0.0
30/07:00am 10.0 6.2 -0.5 48 4.5 SSW 9 11 5 6 - - 0.0
30/06:30am 10.3 6.6 -0.2 48 4.5 SSW 9 9 5 5 - - 0.0
30/06:00am 10.5 6.9 -1.9 42 5.2 S 7 9 4 5 - - 0.0
30/05:30am 10.6 7.0 -1.8 42 5.2 S 7 9 4 5 - - 0.0
30/05:00am 10.2 6.3 -1.8 43 5.0 S 9 9 5 5 - - 0.0
30/04:30am 10.4 6.1 -1.9 42 5.1 SSE 11 11 6 6 - - 0.0
30/04:00am 10.5 5.6 -3.6 37 5.6 SE 13 17 7 9 - - 0.0
30/03:30am 10.1 3.9 -5.0 34 5.8 SE 19 20 10 11 - - 0.0
30/03:00am 9.7 4.0 -3.6 39 5.3 SSE 17 24 9 13 - - 0.0
30/02:30am 9.8 3.7 -3.8 38 5.4 SSE 19 26 10 14 - - 0.0
30/02:00am 9.9 3.6 -4.1 37 5.5 SSE 20 30 11 16 - - 0.0
30/01:30am 10.1 3.3 -5.4 33 5.9 SSE 22 32 12 17 - - 0.0
30/01:00am 10.2 2.6 -5.3 33 5.9 SSE 26 37 14 20 - - 0.0
30/12:30am 10.1 2.1 -6.2 31 6.1 SSE 28 37 15 20 - - 0.0
30/12:00am 9.6 0.6 -8.5 27 6.4 SSE 32 35 17 19 - - 0.0

Other Formats:

Comma delimited format used in spreadsheet applications
http://www.bom.gov.au/fwo/IDV60801/IDV60801.94833.axf

JavaScript Object Notation format (JSON) in row-major order
http://www.bom.gov.au/fwo/IDV60801/IDV60801.94833.json